sensor_id;sensor_type;location;lat;lon;timestamp;pressure;altitude;pressure_sealevel;temperature;humidity
7309;BME280;3695;53.330;9.876;2023-05-21T00:00:48;102626.44;;;13.00;100.00
7309;BME280;3695;53.330;9.876;2023-05-21T00:03:15;102627.97;;;12.88;100.00
7309;BME280;3695;53.330;9.876;2023-05-21T00:05:42;102628.13;;;13.01;100.00
7309;BME280;3695;53.330;9.876;2023-05-21T00:08:11;102622.53;;;12.88;100.00
7309;BME280;3695;53.330;9.876;2023-05-21T00:10:39;102623.00;;;12.91;100.00
7309;BME280;3695;53.330;9.876;2023-05-21T00:13:06;102618.75;;;12.74;100.00
7309;BME280;3695;53.330;9.876;2023-05-21T00:15:33;102617.34;;;12.93;100.00
7309;BME280;3695;53.330;9.876;2023-05-21T00:17:59;102610.78;;;12.87;100.00
7309;BME280;3695;53.330;9.876;2023-05-21T00:20:26;102610.41;;;12.76;100.00
7309;BME280;3695;53.330;9.876;2023-05-21T00:22:53;102614.25;;;12.67;100.00
7309;BME280;3695;53.330;9.876;2023-05-21T00:25:19;102616.69;;;12.61;100.00
7309;BME280;3695;53.330;9.876;2023-05-21T00:27:47;102614.16;;;12.45;100.00
7309;BME280;3695;53.330;9.876;2023-05-21T00:30:15;102605.53;;;12.56;100.00
7309;BME280;3695;53.330;9.876;2023-05-21T00:32:41;102608.91;;;12.58;100.00
7309;BME280;3695;53.330;9.876;2023-05-21T00:35:08;102609.56;;;12.60;100.00
7309;BME280;3695;53.330;9.876;2023-05-21T00:37:35;102602.81;;;12.56;100.00
7309;BME280;3695;53.330;9.876;2023-05-21T00:40:05;102599.06;;;12.57;100.00
7309;BME280;3695;53.330;9.876;2023-05-21T00:42:33;102599.72;;;12.59;100.00
7309;BME280;3695;53.330;9.876;2023-05-21T00:45:06;102601.31;;;12.39;100.00
7309;BME280;3695;53.330;9.876;2023-05-21T00:47:33;102599.44;;;12.54;100.00
7309;BME280;3695;53.330;9.876;2023-05-21T00:50:01;102595.88;;;12.54;100.00
7309;BME280;3695;53.330;9.876;2023-05-21T00:52:28;102601.88;;;12.49;100.00
7309;BME280;3695;53.330;9.876;2023-05-21T00:54:55;102598.03;;;12.44;100.00
7309;BME280;3695;53.330;9.876;2023-05-21T00:57:24;102600.56;;;12.45;100.00
7309;BME280;3695;53.330;9.876;2023-05-21T00:59:52;102589.03;;;12.58;100.00
7309;BME280;3695;53.330;9.876;2023-05-21T01:02:21;102598.59;;;12.54;100.00
7309;BME280;3695;53.330;9.876;2023-05-21T01:04:48;102589.88;;;12.44;100.00
7309;BME280;3695;53.330;9.876;2023-05-21T01:07:15;102592.50;;;12.37;100.00
7309;BME280;3695;53.330;9.876;2023-05-21T01:09:42;102583.59;;;12.43;100.00
7309;BME280;3695;53.330;9.876;2023-05-21T01:12:09;102586.69;;;12.40;100.00
7309;BME280;3695;53.330;9.876;2023-05-21T01:14:37;102588.13;;;12.28;100.00
7309;BME280;3695;53.330;9.876;2023-05-21T01:17:05;102586.59;;;12.34;100.00
7309;BME280;3695;53.330;9.876;2023-05-21T01:19:35;102587.44;;;12.34;100.00
7309;BME280;3695;53.330;9.876;2023-05-21T01:22:03;102594.19;;;12.38;100.00
7309;BME280;3695;53.330;9.876;2023-05-21T01:24:32;102592.88;;;12.34;100.00
7309;BME280;3695;53.330;9.876;2023-05-21T01:27:01;102583.69;;;12.35;100.00
7309;BME280;3695;53.330;9.876;2023-05-21T01:29:29;102584.94;;;12.24;100.00
7309;BME280;3695;53.330;9.876;2023-05-21T01:32:13;102590.84;;;12.28;100.00
7309;BME280;3695;53.330;9.876;2023-05-21T01:34:49;102579.50;;;12.10;100.00
7309;BME280;3695;53.330;9.876;2023-05-21T01:37:26;102586.63;;;12.25;100.00
7309;BME280;3695;53.330;9.876;2023-05-21T01:39:59;102587.66;;;12.24;100.00
7309;BME280;3695;53.330;9.876;2023-05-21T01:42:28;102579.63;;;12.31;100.00
7309;BME280;3695;53.330;9.876;2023-05-21T01:44:56;102576.22;;;12.14;100.00
7309;BME280;3695;53.330;9.876;2023-05-21T01:47:25;102579.03;;;12.21;100.00
7309;BME280;3695;53.330;9.876;2023-05-21T01:49:55;102581.56;;;12.22;100.00
7309;BME280;3695;53.330;9.876;2023-05-21T01:52:22;102581.53;;;12.31;100.00
7309;BME280;3695;53.330;9.876;2023-05-21T01:54:49;102580.53;;;12.23;100.00
7309;BME280;3695;53.330;9.876;2023-05-21T01:57:17;102575.28;;;12.22;100.00
7309;BME280;3695;53.330;9.876;2023-05-21T01:59:43;102578.19;;;12.20;100.00
7309;BME280;3695;53.330;9.876;2023-05-21T02:02:12;102583.44;;;12.22;100.00
7309;BME280;3695;53.330;9.876;2023-05-21T02:04:38;102573.31;;;12.16;100.00
7309;BME280;3695;53.330;9.876;2023-05-21T02:07:05;102570.41;;;12.03;100.00
7309;BME280;3695;53.330;9.876;2023-05-21T02:09:32;102570.69;;;12.08;100.00
7309;BME280;3695;53.330;9.876;2023-05-21T02:11:58;102575.75;;;12.11;100.00
7309;BME280;3695;53.330;9.876;2023-05-21T02:14:26;102571.63;;;12.15;100.00
7309;BME280;3695;53.330;9.876;2023-05-21T02:16:54;102563.56;;;12.07;100.00
7309;BME280;3695;53.330;9.876;2023-05-21T02:19:20;102563.63;;;11.98;100.00
7309;BME280;3695;53.330;9.876;2023-05-21T02:21:47;102568.03;;;12.00;100.00
7309;BME280;3695;53.330;9.876;2023-05-21T02:24:13;102560.81;;;11.92;100.00
7309;BME280;3695;53.330;9.876;2023-05-21T02:26:40;102556.22;;;11.92;100.00
7309;BME280;3695;53.330;9.876;2023-05-21T02:29:07;102560.00;;;12.06;100.00
7309;BME280;3695;53.330;9.876;2023-05-21T02:31:35;102559.97;;;11.91;100.00
7309;BME280;3695;53.330;9.876;2023-05-21T02:34:01;102556.91;;;12.09;100.00
7309;BME280;3695;53.330;9.876;2023-05-21T02:36:28;102553.63;;;12.14;100.00
7309;BME280;3695;53.330;9.876;2023-05-21T02:38:57;102551.09;;;12.12;100.00
7309;BME280;3695;53.330;9.876;2023-05-21T02:41:25;102539.19;;;11.98;100.00
7309;BME280;3695;53.330;9.876;2023-05-21T02:43:52;102545.38;;;12.07;100.00
7309;BME280;3695;53.330;9.876;2023-05-21T02:46:18;102550.41;;;11.95;100.00
7309;BME280;3695;53.330;9.876;2023-05-21T02:48:46;102548.38;;;11.97;100.00
7309;BME280;3695;53.330;9.876;2023-05-21T02:51:12;102548.94;;;12.08;100.00
7309;BME280;3695;53.330;9.876;2023-05-21T02:53:39;102552.03;;;12.05;100.00
7309;BME280;3695;53.330;9.876;2023-05-21T02:56:05;102542.34;;;11.87;100.00
7309;BME280;3695;53.330;9.876;2023-05-21T02:58:32;102546.22;;;12.08;100.00
7309;BME280;3695;53.330;9.876;2023-05-21T03:00:58;102533.38;;;12.02;100.00
7309;BME280;3695;53.330;9.876;2023-05-21T03:03:25;102536.25;;;11.85;100.00
7309;BME280;3695;53.330;9.876;2023-05-21T03:05:53;102542.41;;;11.79;100.00
7309;BME280;3695;53.330;9.876;2023-05-21T03:08:19;102531.31;;;11.89;100.00
7309;BME280;3695;53.330;9.876;2023-05-21T03:10:47;102538.13;;;11.85;100.00
7309;BME280;3695;53.330;9.876;2023-05-21T03:13:14;102534.47;;;11.70;100.00
7309;BME280;3695;53.330;9.876;2023-05-21T03:15:40;102540.00;;;11.84;100.00
7309;BME280;3695;53.330;9.876;2023-05-21T03:18:08;102541.13;;;11.90;100.00
7309;BME280;3695;53.330;9.876;2023-05-21T03:20:34;102547.13;;;11.77;100.00
7309;BME280;3695;53.330;9.876;2023-05-21T03:23:09;102548.59;;;11.65;100.00
7309;BME280;3695;53.330;9.876;2023-05-21T03:25:36;102538.59;;;11.65;100.00
7309;BME280;3695;53.330;9.876;2023-05-21T03:28:03;102542.72;;;11.76;100.00
7309;BME280;3695;53.330;9.876;2023-05-21T03:30:30;102554.69;;;11.67;100.00
7309;BME280;3695;53.330;9.876;2023-05-21T03:32:57;102535.69;;;11.67;100.00
7309;BME280;3695;53.330;9.876;2023-05-21T03:35:24;102544.38;;;11.62;100.00
7309;BME280;3695;53.330;9.876;2023-05-21T03:37:50;102533.34;;;11.64;100.00
7309;BME280;3695;53.330;9.876;2023-05-21T03:40:18;102533.78;;;11.53;100.00
7309;BME280;3695;53.330;9.876;2023-05-21T03:42:46;102532.06;;;11.75;100.00
7309;BME280;3695;53.330;9.876;2023-05-21T03:45:12;102529.88;;;11.70;100.00
7309;BME280;3695;53.330;9.876;2023-05-21T03:47:38;102530.63;;;11.64;100.00
7309;BME280;3695;53.330;9.876;2023-05-21T03:50:07;102533.03;;;11.82;100.00
7309;BME280;3695;53.330;9.876;2023-05-21T03:52:33;102528.31;;;11.76;100.00
7309;BME280;3695;53.330;9.876;2023-05-21T03:55:00;102540.19;;;11.83;100.00
7309;BME280;3695;53.330;9.876;2023-05-21T03:57:28;102538.91;;;11.93;100.00
7309;BME280;3695;53.330;9.876;2023-05-21T03:59:54;102537.50;;;11.97;100.00
7309;BME280;3695;53.330;9.876;2023-05-21T04:02:24;102544.63;;;11.98;100.00
7309;BME280;3695;53.330;9.876;2023-05-21T04:04:50;102541.63;;;11.93;100.00
7309;BME280;3695;53.330;9.876;2023-05-21T04:07:17;102545.53;;;11.91;100.00
7309;BME280;3695;53.330;9.876;2023-05-21T04:09:44;102541.72;;;12.00;100.00
7309;BME280;3695;53.330;9.876;2023-05-21T04:12:11;102542.63;;;11.92;100.00
7309;BME280;3695;53.330;9.876;2023-05-21T04:14:39;102531.22;;;11.97;100.00
7309;BME280;3695;53.330;9.876;2023-05-21T04:17:05;102547.72;;;12.10;100.00
7309;BME280;3695;53.330;9.876;2023-05-21T04:19:33;102544.44;;;12.15;100.00
7309;BME280;3695;53.330;9.876;2023-05-21T04:21:59;102558.31;;;12.20;100.00
7309;BME280;3695;53.330;9.876;2023-05-21T04:24:27;102555.03;;;12.24;100.00
7309;BME280;3695;53.330;9.876;2023-05-21T04:26:53;102555.88;;;12.25;100.00
7309;BME280;3695;53.330;9.876;2023-05-21T04:29:20;102558.31;;;12.20;100.00
7309;BME280;3695;53.330;9.876;2023-05-21T04:31:48;102555.03;;;12.24;100.00
7309;BME280;3695;53.330;9.876;2023-05-21T04:34:15;102594.56;;;12.35;100.00
7309;BME280;3695;53.330;9.876;2023-05-21T04:36:43;102587.81;;;12.31;100.00
7309;BME280;3695;53.330;9.876;2023-05-21T04:39:10;102591.66;;;12.37;100.00
7309;BME280;3695;53.330;9.876;2023-05-21T04:41:37;102581.63;;;12.37;100.00
7309;BME280;3695;53.330;9.876;2023-05-21T04:44:05;102580.50;;;12.46;100.00
7309;BME280;3695;53.330;9.876;2023-05-21T04:46:32;102580.50;;;12.46;100.00
7309;BME280;3695;53.330;9.876;2023-05-21T04:49:00;102587.06;;;12.37;100.00
7309;BME280;3695;53.330;9.876;2023-05-21T04:51:28;102586.31;;;12.43;100.00
7309;BME280;3695;53.330;9.876;2023-05-21T04:53:54;102586.09;;;12.30;100.00
7309;BME280;3695;53.330;9.876;2023-05-21T04:56:22;102590.06;;;12.42;100.00
7309;BME280;3695;53.330;9.876;2023-05-21T04:58:50;102612.56;;;12.36;100.00
7309;BME280;3695;53.330;9.876;2023-05-21T05:01:18;102631.63;;;12.28;100.00
7309;BME280;3695;53.330;9.876;2023-05-21T05:03:47;102649.13;;;12.48;100.00
7309;BME280;3695;53.330;9.876;2023-05-21T05:06:15;102668.56;;;12.60;100.00
7309;BME280;3695;53.330;9.876;2023-05-21T05:08:42;102662.56;;;12.50;100.00
7309;BME280;3695;53.330;9.876;2023-05-21T05:11:08;102652.44;;;12.58;100.00
7309;BME280;3695;53.330;9.876;2023-05-21T05:13:34;102653.94;;;12.76;100.00
7309;BME280;3695;53.330;9.876;2023-05-21T05:16:01;102663.78;;;12.77;100.00
7309;BME280;3695;53.330;9.876;2023-05-21T05:18:28;102720.88;;;12.85;100.00
7309;BME280;3695;53.330;9.876;2023-05-21T05:20:54;102713.19;;;13.03;100.00
7309;BME280;3695;53.330;9.876;2023-05-21T05:23:22;102688.03;;;13.01;100.00
7309;BME280;3695;53.330;9.876;2023-05-21T05:25:48;102714.88;;;13.04;100.00
7309;BME280;3695;53.330;9.876;2023-05-21T05:28:15;102713.72;;;13.13;100.00
7309;BME280;3695;53.330;9.876;2023-05-21T05:30:41;102762.56;;;13.00;100.00
7309;BME280;3695;53.330;9.876;2023-05-21T05:33:08;102749.13;;;13.13;100.00
7309;BME280;3695;53.330;9.876;2023-05-21T05:35:36;102761.47;;;13.24;100.00
7309;BME280;3695;53.330;9.876;2023-05-21T05:38:02;102769.56;;;13.32;100.00
7309;BME280;3695;53.330;9.876;2023-05-21T05:40:30;102754.63;;;13.28;100.00
7309;BME280;3695;53.330;9.876;2023-05-21T05:42:56;102753.41;;;13.31;100.00
7309;BME280;3695;53.330;9.876;2023-05-21T05:45:23;102754.34;;;13.38;100.00
7309;BME280;3695;53.330;9.876;2023-05-21T05:47:50;102738.16;;;13.51;100.00
7309;BME280;3695;53.330;9.876;2023-05-21T05:50:17;102720.91;;;13.44;100.00
7309;BME280;3695;53.330;9.876;2023-05-21T05:52:43;102721.31;;;13.62;100.00
7309;BME280;3695;53.330;9.876;2023-05-21T05:55:10;102720.47;;;13.76;100.00
7309;BME280;3695;53.330;9.876;2023-05-21T05:57:38;102731.06;;;13.86;100.00
7309;BME280;3695;53.330;9.876;2023-05-21T06:00:06;102716.47;;;13.94;100.00
7309;BME280;3695;53.330;9.876;2023-05-21T06:02:34;102733.16;;;14.05;100.00
7309;BME280;3695;53.330;9.876;2023-05-21T06:05:01;102737.22;;;14.16;100.00
7309;BME280;3695;53.330;9.876;2023-05-21T06:07:28;102729.13;;;14.01;100.00
7309;BME280;3695;53.330;9.876;2023-05-21T06:09:54;102732.56;;;14.31;100.00
7309;BME280;3695;53.330;9.876;2023-05-21T06:12:21;102703.47;;;14.38;100.00
7309;BME280;3695;53.330;9.876;2023-05-21T06:14:48;102706.41;;;14.37;100.00
7309;BME280;3695;53.330;9.876;2023-05-21T06:17:15;102686.72;;;14.41;100.00
7309;BME280;3695;53.330;9.876;2023-05-21T06:19:41;102685.56;;;14.29;100.00
7309;BME280;3695;53.330;9.876;2023-05-21T06:22:09;102707.88;;;14.61;100.00
7309;BME280;3695;53.330;9.876;2023-05-21T06:24:36;102670.50;;;14.61;100.00
7309;BME280;3695;53.330;9.876;2023-05-21T06:27:02;102664.72;;;14.71;100.00
7309;BME280;3695;53.330;9.876;2023-05-21T06:29:29;102655.97;;;14.82;100.00
7309;BME280;3695;53.330;9.876;2023-05-21T06:31:57;102640.00;;;14.79;100.00
7309;BME280;3695;53.330;9.876;2023-05-21T06:34:23;102670.72;;;14.94;100.00
7309;BME280;3695;53.330;9.876;2023-05-21T06:36:50;102633.75;;;14.92;100.00
7309;BME280;3695;53.330;9.876;2023-05-21T06:39:16;102627.63;;;14.83;100.00
7309;BME280;3695;53.330;9.876;2023-05-21T06:41:43;102644.66;;;14.85;100.00
7309;BME280;3695;53.330;9.876;2023-05-21T06:44:09;102646.16;;;14.94;100.00
7309;BME280;3695;53.330;9.876;2023-05-21T06:46:36;102640.69;;;14.94;100.00
7309;BME280;3695;53.330;9.876;2023-05-21T06:49:03;102671.69;;;15.15;100.00
7309;BME280;3695;53.330;9.876;2023-05-21T06:51:31;102645.88;;;15.17;100.00
7309;BME280;3695;53.330;9.876;2023-05-21T06:53:57;102661.47;;;15.30;100.00
7309;BME280;3695;53.330;9.876;2023-05-21T06:56:24;102626.84;;;15.43;100.00
7309;BME280;3695;53.330;9.876;2023-05-21T06:58:50;102618.88;;;15.55;100.00
7309;BME280;3695;53.330;9.876;2023-05-21T07:01:18;102591.59;;;15.62;100.00
7309;BME280;3695;53.330;9.876;2023-05-21T07:03:46;102583.00;;;15.71;100.00
7309;BME280;3695;53.330;9.876;2023-05-21T07:06:14;102574.16;;;15.69;100.00
7309;BME280;3695;53.330;9.876;2023-05-21T07:08:41;102590.34;;;15.97;100.00
7309;BME280;3695;53.330;9.876;2023-05-21T07:11:07;102559.88;;;15.81;100.00
7309;BME280;3695;53.330;9.876;2023-05-21T07:13:34;102564.69;;;15.92;100.00
7309;BME280;3695;53.330;9.876;2023-05-21T07:16:00;102556.28;;;16.13;100.00
7309;BME280;3695;53.330;9.876;2023-05-21T07:18:27;102525.56;;;16.18;100.00
7309;BME280;3695;53.330;9.876;2023-05-21T07:20:53;102525.16;;;16.14;100.00
7309;BME280;3695;53.330;9.876;2023-05-21T07:23:22;102514.19;;;16.14;100.00
7309;BME280;3695;53.330;9.876;2023-05-21T07:25:49;102533.53;;;16.26;100.00
7309;BME280;3695;53.330;9.876;2023-05-21T07:28:16;102516.25;;;16.32;100.00
7309;BME280;3695;53.330;9.876;2023-05-21T07:30:42;102509.66;;;16.53;100.00
7309;BME280;3695;53.330;9.876;2023-05-21T07:33:09;102514.53;;;16.57;100.00
7309;BME280;3695;53.330;9.876;2023-05-21T07:35:36;102503.97;;;16.61;100.00
7309;BME280;3695;53.330;9.876;2023-05-21T07:38:03;102503.13;;;16.60;100.00
7309;BME280;3695;53.330;9.876;2023-05-21T07:40:31;102515.34;;;16.58;100.00
7309;BME280;3695;53.330;9.876;2023-05-21T07:42:58;102516.59;;;16.62;100.00
7309;BME280;3695;53.330;9.876;2023-05-21T07:45:25;102498.09;;;16.51;100.00
7309;BME280;3695;53.330;9.876;2023-05-21T07:47:51;102521.47;;;16.60;100.00
7309;BME280;3695;53.330;9.876;2023-05-21T07:50:18;102498.72;;;16.66;100.00
7309;BME280;3695;53.330;9.876;2023-05-21T07:52:44;102514.91;;;16.74;100.00
7309;BME280;3695;53.330;9.876;2023-05-21T07:55:11;102489.34;;;16.87;100.00
7309;BME280;3695;53.330;9.876;2023-05-21T07:57:38;102476.41;;;17.00;100.00
7309;BME280;3695;53.330;9.876;2023-05-21T08:00:06;102484.47;;;17.27;100.00
7309;BME280;3695;53.330;9.876;2023-05-21T08:02:34;102466.56;;;17.56;100.00
7309;BME280;3695;53.330;9.876;2023-05-21T08:05:00;102446.16;;;17.45;100.00
7309;BME280;3695;53.330;9.876;2023-05-21T08:07:27;102461.03;;;17.31;100.00
7309;BME280;3695;53.330;9.876;2023-05-21T08:09:54;102486.22;;;17.46;100.00
7309;BME280;3695;53.330;9.876;2023-05-21T08:12:20;102463.31;;;17.66;100.00
7309;BME280;3695;53.330;9.876;2023-05-21T08:14:48;102435.41;;;17.75;100.00
7309;BME280;3695;53.330;9.876;2023-05-21T08:17:15;102451.16;;;17.80;100.00
7309;BME280;3695;53.330;9.876;2023-05-21T08:19:41;102428.53;;;17.84;100.00
7309;BME280;3695;53.330;9.876;2023-05-21T08:22:08;102435.78;;;17.79;100.00
7309;BME280;3695;53.330;9.876;2023-05-21T08:24:34;102446.94;;;18.02;100.00
7309;BME280;3695;53.330;9.876;2023-05-21T08:27:00;102422.06;;;17.97;100.00
7309;BME280;3695;53.330;9.876;2023-05-21T08:29:27;102430.47;;;18.20;100.00
7309;BME280;3695;53.330;9.876;2023-05-21T08:31:55;102434.00;;;18.09;100.00
7309;BME280;3695;53.330;9.876;2023-05-21T08:34:21;102428.34;;;18.22;100.00
7309;BME280;3695;53.330;9.876;2023-05-21T08:36:48;102421.13;;;18.10;100.00
7309;BME280;3695;53.330;9.876;2023-05-21T08:39:14;102435.44;;;18.48;100.00
7309;BME280;3695;53.330;9.876;2023-05-21T08:41:41;102437.81;;;18.63;100.00
7309;BME280;3695;53.330;9.876;2023-05-21T08:44:13;102414.81;;;18.58;100.00
7309;BME280;3695;53.330;9.876;2023-05-21T08:46:43;102425.13;;;18.62;100.00
7309;BME280;3695;53.330;9.876;2023-05-21T08:49:12;102421.59;;;18.73;100.00
7309;BME280;3695;53.330;9.876;2023-05-21T08:51:40;102419.56;;;18.99;100.00
7309;BME280;3695;53.330;9.876;2023-05-21T08:54:07;102406.94;;;18.79;100.00
7309;BME280;3695;53.330;9.876;2023-05-21T08:56:34;102416.47;;;18.77;100.00
7309;BME280;3695;53.330;9.876;2023-05-21T08:59:01;102425.66;;;19.01;100.00
7309;BME280;3695;53.330;9.876;2023-05-21T09:01:28;102429.38;;;19.18;100.00
7309;BME280;3695;53.330;9.876;2023-05-21T09:03:56;102428.78;;;19.16;100.00
7309;BME280;3695;53.330;9.876;2023-05-21T09:06:24;102410.13;;;19.06;100.00
7309;BME280;3695;53.330;9.876;2023-05-21T09:08:57;102442.53;;;19.16;100.00
7309;BME280;3695;53.330;9.876;2023-05-21T09:11:25;102444.91;;;19.54;100.00
7309;BME280;3695;53.330;9.876;2023-05-21T09:13:52;102447.19;;;19.69;100.00
7309;BME280;3695;53.330;9.876;2023-05-21T09:16:19;102456.03;;;19.71;100.00
7309;BME280;3695;53.330;9.876;2023-05-21T09:18:45;102452.31;;;19.77;100.00
7309;BME280;3695;53.330;9.876;2023-05-21T09:21:26;102474.09;;;20.13;100.00
7309;BME280;3695;53.330;9.876;2023-05-21T09:23:54;102460.59;;;20.00;100.00
7309;BME280;3695;53.330;9.876;2023-05-21T09:26:21;102473.88;;;20.03;100.00
7309;BME280;3695;53.330;9.876;2023-05-21T09:28:50;102480.31;;;20.21;100.00
7309;BME280;3695;53.330;9.876;2023-05-21T09:31:16;102478.50;;;20.38;100.00
7309;BME280;3695;53.330;9.876;2023-05-21T09:33:45;102482.34;;;20.37;100.00
7309;BME280;3695;53.330;9.876;2023-05-21T09:36:12;102493.38;;;20.49;100.00
7309;BME280;3695;53.330;9.876;2023-05-21T09:38:40;102492.34;;;20.66;100.00
7309;BME280;3695;53.330;9.876;2023-05-21T09:41:06;102494.72;;;20.74;100.00
7309;BME280;3695;53.330;9.876;2023-05-21T09:43:33;102492.78;;;20.87;100.00
7309;BME280;3695;53.330;9.876;2023-05-21T09:45:59;102485.00;;;20.72;100.00
7309;BME280;3695;53.330;9.876;2023-05-21T09:48:33;102479.56;;;20.60;100.00
7309;BME280;3695;53.330;9.876;2023-05-21T09:51:10;102485.94;;;20.89;100.00
7309;BME280;3695;53.330;9.876;2023-05-21T09:53:44;102489.72;;;21.28;100.00
7309;BME280;3695;53.330;9.876;2023-05-21T09:56:13;102488.06;;;21.44;100.00
7309;BME280;3695;53.330;9.876;2023-05-21T09:58:40;102484.91;;;21.52;100.00
7309;BME280;3695;53.330;9.876;2023-05-21T10:01:06;102471.00;;;21.64;100.00
7309;BME280;3695;53.330;9.876;2023-05-21T10:03:37;102466.25;;;21.59;100.00
7309;BME280;3695;53.330;9.876;2023-05-21T10:06:06;102464.81;;;21.74;100.00
7309;BME280;3695;53.330;9.876;2023-05-21T10:08:35;102451.28;;;21.72;100.00
7309;BME280;3695;53.330;9.876;2023-05-21T10:11:04;102435.25;;;21.52;100.00
7309;BME280;3695;53.330;9.876;2023-05-21T10:13:33;102409.91;;;21.55;100.00
7309;BME280;3695;53.330;9.876;2023-05-21T10:16:02;102404.59;;;21.87;100.00
7309;BME280;3695;53.330;9.876;2023-05-21T10:18:31;102386.41;;;22.08;100.00
7309;BME280;3695;53.330;9.876;2023-05-21T10:20:59;102363.75;;;21.89;100.00
7309;BME280;3695;53.330;9.876;2023-05-21T10:23:26;102350.03;;;21.94;100.00
7309;BME280;3695;53.330;9.876;2023-05-21T10:25:54;102341.19;;;22.14;100.00
7309;BME280;3695;53.330;9.876;2023-05-21T10:28:22;102334.50;;;22.10;100.00
7309;BME280;3695;53.330;9.876;2023-05-21T10:30:49;102326.59;;;22.41;100.00
7309;BME280;3695;53.330;9.876;2023-05-21T10:33:18;102293.28;;;22.04;100.00
7309;BME280;3695;53.330;9.876;2023-05-21T10:35:45;102303.97;;;22.22;100.00
7309;BME280;3695;53.330;9.876;2023-05-21T10:38:12;102303.84;;;22.60;100.00
7309;BME280;3695;53.330;9.876;2023-05-21T10:40:39;102301.34;;;22.32;100.00
7309;BME280;3695;53.330;9.876;2023-05-21T10:43:20;102292.59;;;22.40;100.00
7309;BME280;3695;53.330;9.876;2023-05-21T10:46:09;102279.19;;;22.54;100.00
7309;BME280;3695;53.330;9.876;2023-05-21T10:48:53;102272.25;;;22.51;100.00
7309;BME280;3695;53.330;9.876;2023-05-21T10:51:25;102254.59;;;22.84;100.00
7309;BME280;3695;53.330;9.876;2023-05-21T10:54:15;102259.25;;;22.52;100.00
7309;BME280;3695;53.330;9.876;2023-05-21T10:56:47;102257.13;;;22.59;100.00
7309;BME280;3695;53.330;9.876;2023-05-21T10:59:30;102264.09;;;22.67;100.00
7309;BME280;3695;53.330;9.876;2023-05-21T11:02:02;102253.13;;;22.77;100.00
7309;BME280;3695;53.330;9.876;2023-05-21T11:04:31;102262.94;;;23.32;100.00
7309;BME280;3695;53.330;9.876;2023-05-21T11:06:59;102266.78;;;23.26;100.00
7309;BME280;3695;53.330;9.876;2023-05-21T11:09:25;102263.69;;;23.64;100.00
7309;BME280;3695;53.330;9.876;2023-05-21T11:11:56;102259.91;;;23.80;100.00
7309;BME280;3695;53.330;9.876;2023-05-21T11:14:31;102257.84;;;23.61;100.00
7309;BME280;3695;53.330;9.876;2023-05-21T11:17:02;102252.75;;;24.05;100.00
7309;BME280;3695;53.330;9.876;2023-05-21T11:19:36;102256.00;;;23.76;100.00
7309;BME280;3695;53.330;9.876;2023-05-21T11:22:07;102244.38;;;23.79;100.00
7309;BME280;3695;53.330;9.876;2023-05-21T11:24:36;102247.72;;;23.81;100.00
7309;BME280;3695;53.330;9.876;2023-05-21T11:27:04;102253.03;;;24.08;100.00
7309;BME280;3695;53.330;9.876;2023-05-21T11:29:35;102244.09;;;23.76;100.00
7309;BME280;3695;53.330;9.876;2023-05-21T11:32:06;102245.47;;;23.73;100.00
7309;BME280;3695;53.330;9.876;2023-05-21T11:34:41;102238.84;;;23.79;100.00
7309;BME280;3695;53.330;9.876;2023-05-21T11:37:31;102248.88;;;24.06;100.00
7309;BME280;3695;53.330;9.876;2023-05-21T11:40:17;102239.97;;;23.83;100.00
7309;BME280;3695;53.330;9.876;2023-05-21T11:42:48;102234.47;;;23.94;100.00
7309;BME280;3695;53.330;9.876;2023-05-21T11:45:16;102232.31;;;24.16;100.00
7309;BME280;3695;53.330;9.876;2023-05-21T11:47:44;102223.41;;;24.04;100.00
7309;BME280;3695;53.330;9.876;2023-05-21T11:50:12;102230.13;;;24.54;100.00
7309;BME280;3695;53.330;9.876;2023-05-21T11:52:40;102231.84;;;24.60;100.00
7309;BME280;3695;53.330;9.876;2023-05-21T11:55:07;102225.44;;;24.54;100.00
7309;BME280;3695;53.330;9.876;2023-05-21T11:57:35;102217.97;;;24.70;100.00
7309;BME280;3695;53.330;9.876;2023-05-21T12:00:03;102209.34;;;24.87;100.00
7309;BME280;3695;53.330;9.876;2023-05-21T12:02:36;102214.31;;;24.90;100.00
7309;BME280;3695;53.330;9.876;2023-05-21T12:05:05;102209.09;;;24.63;100.00
7309;BME280;3695;53.330;9.876;2023-05-21T12:07:33;102217.94;;;24.55;100.00
7309;BME280;3695;53.330;9.876;2023-05-21T12:10:00;102204.34;;;24.58;100.00
7309;BME280;3695;53.330;9.876;2023-05-21T12:12:27;102208.53;;;24.45;100.00
7309;BME280;3695;53.330;9.876;2023-05-21T12:14:54;102197.44;;;24.66;100.00
7309;BME280;3695;53.330;9.876;2023-05-21T12:17:21;102195.72;;;25.16;100.00
7309;BME280;3695;53.330;9.876;2023-05-21T12:19:50;102195.72;;;25.05;100.00
7309;BME280;3695;53.330;9.876;2023-05-21T12:22:18;102202.94;;;24.96;100.00
7309;BME280;3695;53.330;9.876;2023-05-21T12:24:45;102200.13;;;25.22;100.00
7309;BME280;3695;53.330;9.876;2023-05-21T12:27:12;102203.88;;;25.61;100.00
7309;BME280;3695;53.330;9.876;2023-05-21T12:29:42;102190.69;;;25.23;100.00
7309;BME280;3695;53.330;9.876;2023-05-21T12:32:10;102192.97;;;25.80;100.00
7309;BME280;3695;53.330;9.876;2023-05-21T12:34:38;102203.78;;;25.82;100.00
7309;BME280;3695;53.330;9.876;2023-05-21T12:37:06;102191.44;;;25.98;100.00
7309;BME280;3695;53.330;9.876;2023-05-21T12:39:39;102177.38;;;26.23;100.00
7309;BME280;3695;53.330;9.876;2023-05-21T12:42:06;102169.84;;;26.63;100.00
7309;BME280;3695;53.330;9.876;2023-05-21T12:44:32;102170.44;;;26.60;100.00
7309;BME280;3695;53.330;9.876;2023-05-21T12:46:59;102165.78;;;26.79;100.00
7309;BME280;3695;53.330;9.876;2023-05-21T12:49:29;102164.31;;;26.87;100.00
7309;BME280;3695;53.330;9.876;2023-05-21T12:51:56;102168.09;;;26.04;100.00
7309;BME280;3695;53.330;9.876;2023-05-21T12:54:27;102158.50;;;26.20;100.00
7309;BME280;3695;53.330;9.876;2023-05-21T12:56:55;102166.94;;;26.44;100.00
7309;BME280;3695;53.330;9.876;2023-05-21T12:59:21;102160.50;;;26.78;100.00
7309;BME280;3695;53.330;9.876;2023-05-21T13:01:48;102160.00;;;27.05;100.00
7309;BME280;3695;53.330;9.876;2023-05-21T13:04:18;102156.97;;;26.72;100.00